Terminal Aerodrome Forecast
Issued by NWS Wilmington, OH

Home | Current Version | Previous Version | Text Only | Print | Product List | Glossary On
Versions: 1 2 3 4 5 6 7 8 9 10 11 12 13 14 15
000
FTUS41 KILN 211100
TAFCMH
TAF
KCMH 211132Z 2112/2212 00000KT P6SM BKN025
      TEMPO 2112/2115 4SM BR SCT025
     FM211500 12004KT P6SM SCT025 BKN250
     FM220300 10003KT P6SM FEW025 BKN250=

USA.gov is the U.S. government's official web portal to all federal, state and local government web resources and services.